Kingston, Oklahoma
Current Conditions -  °F | °C
As of 4:15 PM on Sunday 23 Nov 2014 (Local Time) from KDUA Reporting Station
Clear Clear  
Wind Chill: 72°   Ceiling: Unl
Heat Index: 72°   Visibility: 10mi
Dew Point: 43°   Wind: 16mph
Humidity: 35%   Direction: 260°W
Pressure: 29.38"   Gusts: 23mph
Location:  34°N, 96.72°W
Report Text: KDUA 232215Z AUTO 26014G20KT 10SM CLR 22/06 A2938 RMK AO2
Loading
Personal Weather Stations






























Interactive Weather Map New forecast layout! Learn more

10-Day Weather Forecast

Advertisements
Track Severe Weather on mobile